Time;durP1;ratioP1;P1;durP2;ratioP2;P2;SDS_P1;SDS_P2;PMS_P1;PMS_P2;Temp;Humidity;BMP_temperature;BMP_pressure;BME280_temperature;BME280_humidity;BME280_pressure;Samples;Min_cycle;Max_cycle;Signal;HPM_P1;HPM_P2
2022/09/03 00:00:16;;;;;;;9.98;2.33;;;;;;;;;;5025563;28;20041;-66
2022/09/03 00:02:44;;;;;;;11.23;2.38;;;;;;;;;;5035458;28;20037;-68
2022/09/03 00:05:23;;;;;;;6.88;2.40;;;;;;;;;;5036150;28;20045;-67
2022/09/03 00:07:56;;;;;;;10.02;2.75;;;;;;;;;;5031426;28;20053;-67
2022/09/03 00:10:29;;;;;;;6.78;2.35;;;;;;;;;;5025243;28;20107;-66
2022/09/03 00:12:59;;;;;;;11.57;2.33;;;;;;;;;;5026278;28;20053;-67
2022/09/03 00:15:26;;;;;;;11.43;2.70;;;;;;;;;;5024714;28;20179;-67
2022/09/03 00:17:55;;;;;;;7.72;2.50;;;;;;;;;;5023844;28;20052;-67
2022/09/03 00:20:22;;;;;;;6.43;2.40;;;;;;;;;;5027886;28;20401;-67
2022/09/03 00:22:53;;;;;;;6.80;2.63;;;;;;;;;;5046371;28;20397;-67
2022/09/03 00:25:28;;;;;;;5.78;2.72;;;;;;;;;;5030568;28;20052;-66
2022/09/03 00:27:57;;;;;;;8.13;2.75;;;;;;;;;;5044786;28;20132;-68
2022/09/03 00:30:23;;;;;;;7.57;2.45;;;;;;;;;;5026871;28;20056;-67
2022/09/03 00:33:05;;;;;;;11.05;3.08;;;;;;;;;;5027713;28;20037;-67
2022/09/03 00:35:34;;;;;;;5.03;2.33;;;;;;;;;;5039910;28;20688;-66
2022/09/03 00:38:01;;;;;;;8.82;2.50;;;;;;;;;;5040883;28;20033;-66
2022/09/03 00:40:27;;;;;;;8.85;2.40;;;;;;;;;;5040170;28;20041;-67
2022/09/03 00:42:54;;;;;;;7.72;2.83;;;;;;;;;;5040277;28;20045;-67
2022/09/03 00:45:39;;;;;;;10.10;2.83;;;;;;;;;;5040137;28;20045;-67
2022/09/03 00:48:11;;;;;;;11.50;2.95;;;;;;;;;;5040333;28;20063;-66
2022/09/03 00:51:03;;;;;;;7.90;3.00;;;;;;;;;;5040972;28;20045;-66
2022/09/03 00:53:38;;;;;;;6.95;2.85;;;;;;;;;;5041947;28;20052;-67
2022/09/03 00:56:34;;;;;;;8.40;3.15;;;;;;;;;;5030650;28;20103;-66
2022/09/03 00:59:07;;;;;;;11.88;2.90;;;;;;;;;;4969643;28;20206;-67
2022/09/03 01:01:54;;;;;;;10.18;2.60;;;;;;;;;;5022582;28;20628;-66
2022/09/03 01:04:29;;;;;;;9.65;2.35;;;;;;;;;;5022750;28;20056;-65
2022/09/03 01:07:09;;;;;;;7.13;2.45;;;;;;;;;;5035416;28;20413;-66
2022/09/03 01:09:47;;;;;;;9.93;2.53;;;;;;;;;;5039676;28;20037;-67
2022/09/03 01:12:14;;;;;;;10.88;2.88;;;;;;;;;;5035835;28;20263;-66
2022/09/03 01:14:51;;;;;;;9.65;2.88;;;;;;;;;;5032816;28;20042;-66
2022/09/03 01:17:24;;;;;;;6.93;2.80;;;;;;;;;;5022583;28;20045;-66
2022/09/03 01:20:03;;;;;;;9.38;3.00;;;;;;;;;;5037678;28;20330;-67
2022/09/03 01:22:48;;;;;;;7.95;2.90;;;;;;;;;;5025031;28;20049;-67
2022/09/03 01:25:17;;;;;;;9.30;2.75;;;;;;;;;;5047575;28;20056;-67
2022/09/03 01:27:53;;;;;;;9.02;3.00;;;;;;;;;;5045921;28;20100;-66
2022/09/03 01:30:22;;;;;;;9.50;3.10;;;;;;;;;;5060292;28;20056;-67
2022/09/03 01:32:52;;;;;;;6.60;2.83;;;;;;;;;;5046547;28;20099;-66
2022/09/03 01:35:27;;;;;;;15.60;3.30;;;;;;;;;;5048990;28;20044;-67
2022/09/03 01:38:01;;;;;;;6.53;3.00;;;;;;;;;;5028164;28;20045;-67
2022/09/03 01:40:28;;;;;;;11.63;3.35;;;;;;;;;;5045326;28;20040;-68
2022/09/03 01:43:06;;;;;;;9.52;3.60;;;;;;;;;;5041349;28;20521;-68
2022/09/03 01:45:43;;;;;;;9.95;3.60;;;;;;;;;;5040775;28;20808;-66
2022/09/03 01:48:26;;;;;;;14.13;3.40;;;;;;;;;;5039490;28;20044;-65
2022/09/03 01:50:58;;;;;;;9.32;3.20;;;;;;;;;;5043038;28;20051;-65
2022/09/03 01:53:25;;;;;;;11.27;3.83;;;;;;;;;;5042898;28;20037;-66
2022/09/03 01:56:10;;;;;;;12.32;3.40;;;;;;;;;;5041393;28;20040;-66
2022/09/03 01:58:42;;;;;;;9.27;3.70;;;;;;;;;;5029820;28;21234;-66
2022/09/03 02:01:08;;;;;;;;;;;;;;;;;;5022663;28;20041;-66
2022/09/03 02:03:39;;;;;;;10.10;3.40;;;;;;;;;;5021233;28;19917;-66
2022/09/03 02:06:07;;;;;;;8.43;3.67;;;;;;;;;;5027319;28;20048;-66
2022/09/03 02:08:34;;;;;;;7.93;3.05;;;;;;;;;;5039199;28;20672;-65
2022/09/03 02:11:02;;;;;;;13.70;3.42;;;;;;;;;;5039998;28;20045;-65
2022/09/03 02:13:30;;;;;;;8.95;3.53;;;;;;;;;;5037895;28;20130;-66
2022/09/03 02:16:00;;;;;;;9.10;3.65;;;;;;;;;;5039026;28;20045;-66
2022/09/03 02:18:31;;;;;;;12.25;4.60;;;;;;;;;;5037861;28;20052;-66
2022/09/03 02:20:58;;;;;;;16.30;3.20;;;;;;;;;;5039682;28;20037;-66
2022/09/03 02:23:26;;;;;;;22.67;3.80;;;;;;;;;;5037881;28;20413;-66
2022/09/03 02:25:55;;;;;;;13.90;3.75;;;;;;;;;;5036899;28;20125;-66
2022/09/03 02:28:22;;;;;;;8.63;4.13;;;;;;;;;;5048135;28;20042;-66
2022/09/03 02:30:48;;;;;;;15.50;4.30;;;;;;;;;;5022643;28;20045;-67
2022/09/03 02:33:15;;;;;;;7.10;3.55;;;;;;;;;;5037385;28;20041;-66
2022/09/03 02:35:43;;;;;;;12.30;4.32;;;;;;;;;;5035991;28;20120;-67
2022/09/03 02:38:14;;;;;;;8.98;4.20;;;;;;;;;;5036709;28;20071;-69
2022/09/03 02:40:40;;;;;;;15.30;4.80;;;;;;;;;;5036444;28;20052;-67
2022/09/03 02:43:11;;;;;;;15.38;4.97;;;;;;;;;;5037514;28;20064;-66
2022/09/03 02:45:42;;;;;;;12.55;4.43;;;;;;;;;;5036702;28;20053;-64
2022/09/03 02:48:12;;;;;;;11.90;4.70;;;;;;;;;;5036789;28;20052;-68
2022/09/03 02:50:42;;;;;;;12.80;4.85;;;;;;;;;;5037397;28;20041;-66
2022/09/03 02:53:09;;;;;;;12.23;6.32;;;;;;;;;;5036921;28;20127;-67
2022/09/03 02:55:35;;;;;;;14.00;5.20;;;;;;;;;;5038265;28;20047;-67
2022/09/03 02:58:04;;;;;;;12.18;5.47;;;;;;;;;;5037561;28;20406;-67
2022/09/03 03:00:31;;;;;;;10.52;4.72;;;;;;;;;;5036940;28;20144;-67
2022/09/03 03:02:58;;;;;;;15.45;5.25;;;;;;;;;;5019553;28;20053;-66
2022/09/03 03:05:30;;;;;;;11.55;5.00;;;;;;;;;;5034234;28;20048;-67
2022/09/03 03:07:57;;;;;;;13.68;4.95;;;;;;;;;;5037332;28;20044;-68
2022/09/03 03:10:23;;;;;;;13.48;4.90;;;;;;;;;;5037377;28;20033;-67
2022/09/03 03:12:51;;;;;;;16.90;5.55;;;;;;;;;;5040321;28;20041;-66
2022/09/03 03:15:18;;;;;;;11.00;5.80;;;;;;;;;;5040408;28;20068;-66
2022/09/03 03:17:44;;;;;;;12.52;5.03;;;;;;;;;;5038787;28;20206;-68
2022/09/03 03:20:11;;;;;;;12.45;5.50;;;;;;;;;;5040035;28;20304;-67
2022/09/03 03:22:37;;;;;;;15.73;5.97;;;;;;;;;;5040241;28;20029;-68
2022/09/03 03:25:04;;;;;;;15.73;6.25;;;;;;;;;;5040858;28;20069;-65
2022/09/03 03:27:31;;;;;;;18.08;6.00;;;;;;;;;;5038540;28;20048;-66
2022/09/03 03:29:57;;;;;;;21.80;5.97;;;;;;;;;;5039739;28;20069;-66
2022/09/03 03:32:24;;;;;;;20.65;6.35;;;;;;;;;;5040311;28;21878;-66
2022/09/03 03:34:50;;;;;;;15.82;6.10;;;;;;;;;;5049226;28;21359;-65
2022/09/03 03:37:17;;;;;;;16.67;6.53;;;;;;;;;;5023434;28;20064;-65
2022/09/03 03:39:44;;;;;;;14.45;6.22;;;;;;;;;;5031247;28;20858;-63
2022/09/03 03:42:10;;;;;;;14.43;6.22;;;;;;;;;;5035919;28;20041;-65
2022/09/03 03:44:37;;;;;;;16.70;6.40;;;;;;;;;;5039943;28;20049;-65
2022/09/03 03:47:04;;;;;;;17.88;7.07;;;;;;;;;;5041126;28;20045;-65
2022/09/03 03:49:31;;;;;;;15.77;6.55;;;;;;;;;;5041670;28;20556;-65
2022/09/03 03:51:58;;;;;;;14.73;6.40;;;;;;;;;;5043806;28;20041;-67
2022/09/03 03:54:24;;;;;;;16.17;6.10;;;;;;;;;;5041382;28;20099;-67
2022/09/03 03:56:51;;;;;;;15.85;6.88;;;;;;;;;;5042019;28;20667;-69
2022/09/03 03:59:17;;;;;;;17.27;7.45;;;;;;;;;;5041464;28;20029;-67
2022/09/03 04:01:44;;;;;;;24.17;7.15;;;;;;;;;;5040647;28;20080;-67
2022/09/03 04:04:10;;;;;;;17.42;7.15;;;;;;;;;;5041651;28;20049;-68
2022/09/03 04:06:37;;;;;;;13.63;6.50;;;;;;;;;;5040192;28;20040;-68
2022/09/03 04:09:04;;;;;;;17.27;6.85;;;;;;;;;;5041069;28;20596;-67
2022/09/03 04:11:30;;;;;;;19.33;6.70;;;;;;;;;;5042567;28;20041;-67
2022/09/03 04:13:57;;;;;;;16.30;6.53;;;;;;;;;;5043966;28;20424;-67
2022/09/03 04:16:25;;;;;;;11.95;6.72;;;;;;;;;;5043471;28;20521;-67
2022/09/03 04:18:52;;;;;;;16.25;7.38;;;;;;;;;;5042897;28;20044;-66
2022/09/03 04:21:36;;;;;;;13.05;7.28;;;;;;;;;;5044054;28;20123;-68
2022/09/03 04:24:04;;;;;;;12.52;7.10;;;;;;;;;;5029333;28;20093;-66
2022/09/03 04:26:31;;;;;;;15.82;7.32;;;;;;;;;;5025953;28;20037;-68
2022/09/03 04:28:59;;;;;;;20.52;7.57;;;;;;;;;;5028669;28;20041;-67
2022/09/03 04:31:26;;;;;;;13.85;7.57;;;;;;;;;;5040195;28;20491;-67
2022/09/03 04:33:53;;;;;;;20.95;7.80;;;;;;;;;;5041144;28;20037;-67
2022/09/03 04:36:24;;;;;;;15.02;7.30;;;;;;;;;;5042202;28;20086;-67
2022/09/03 04:38:55;;;;;;;16.77;7.13;;;;;;;;;;5052963;28;20111;-66
2022/09/03 04:41:25;;;;;;;16.60;6.90;;;;;;;;;;5023316;28;20044;-67
2022/09/03 04:43:53;;;;;;;15.05;6.30;;;;;;;;;;5028170;28;20046;-68
2022/09/03 04:46:20;;;;;;;15.48;6.78;;;;;;;;;;5049513;28;20041;-67
2022/09/03 04:48:50;;;;;;;16.02;6.55;;;;;;;;;;5037140;28;20047;-68
2022/09/03 04:51:18;;;;;;;22.27;7.65;;;;;;;;;;5029456;28;20051;-67
2022/09/03 04:53:45;;;;;;;15.68;7.43;;;;;;;;;;5039183;28;20033;-67
2022/09/03 04:56:18;;;;;;;20.13;7.60;;;;;;;;;;5033320;28;20130;-67
2022/09/03 04:58:44;;;;;;;;;;;;;;;;;;5038813;28;20033;-68
2022/09/03 05:01:13;;;;;;;14.18;7.13;;;;;;;;;;5023621;28;19951;-68
2022/09/03 05:03:39;;;;;;;17.70;8.18;;;;;;;;;;5020348;28;20042;-67
2022/09/03 05:06:07;;;;;;;13.90;7.72;;;;;;;;;;5023332;28;20140;-67
2022/09/03 05:08:35;;;;;;;18.25;7.63;;;;;;;;;;5019635;28;20076;-67
2022/09/03 05:11:03;;;;;;;17.00;8.00;;;;;;;;;;5022640;28;20049;-67
2022/09/03 05:13:29;;;;;;;18.73;7.85;;;;;;;;;;5036279;28;20431;-66
2022/09/03 05:16:02;;;;;;;23.38;8.82;;;;;;;;;;5039242;28;20063;-66
2022/09/03 05:18:29;;;;;;;19.73;8.65;;;;;;;;;;5037565;28;20055;-67
2022/09/03 05:21:03;;;;;;;23.98;8.70;;;;;;;;;;5038644;28;20037;-67
2022/09/03 05:23:30;;;;;;;16.02;8.73;;;;;;;;;;5040071;28;20037;-67
2022/09/03 05:26:01;;;;;;;21.83;8.52;;;;;;;;;;5039267;28;20080;-67
2022/09/03 05:28:29;;;;;;;25.83;9.13;;;;;;;;;;5036712;28;20037;-67
2022/09/03 05:31:18;;;;;;;18.60;9.02;;;;;;;;;;5039656;28;20140;-66
2022/09/03 05:33:45;;;;;;;18.77;9.48;;;;;;;;;;5017680;28;20029;-67
2022/09/03 05:36:12;;;;;;;23.85;10.25;;;;;;;;;;5027971;28;20454;-67
2022/09/03 05:38:39;;;;;;;19.90;9.88;;;;;;;;;;5038517;28;20044;-67
2022/09/03 05:41:07;;;;;;;20.33;9.48;;;;;;;;;;5039157;28;20033;-67
2022/09/03 05:43:34;;;;;;;20.20;10.02;;;;;;;;;;5039643;28;20382;-67
2022/09/03 05:46:21;;;;;;;20.92;10.10;;;;;;;;;;5039946;28;20054;-68
2022/09/03 05:48:47;;;;;;;22.58;10.35;;;;;;;;;;5021168;28;20032;-68
2022/09/03 05:51:15;;;;;;;26.50;10.85;;;;;;;;;;5026479;28;20052;-68
2022/09/03 05:53:42;;;;;;;22.38;10.48;;;;;;;;;;5032243;28;20079;-68
2022/09/03 05:56:11;;;;;;;22.83;11.27;;;;;;;;;;5039512;28;20037;-67
2022/09/03 05:58:39;;;;;;;21.50;10.73;;;;;;;;;;5038311;28;20037;-68
2022/09/03 06:01:13;;;;;;;24.52;11.32;;;;;;;;;;5032954;28;20060;-69
2022/09/03 06:03:40;;;;;;;21.90;11.05;;;;;;;;;;5031873;28;20047;-68
2022/09/03 06:06:07;;;;;;;19.45;11.10;;;;;;;;;;5039451;28;20041;-68
2022/09/03 06:08:34;;;;;;;21.05;11.13;;;;;;;;;;5038082;28;20087;-68
2022/09/03 06:11:03;;;;;;;28.30;11.55;;;;;;;;;;5039674;28;20136;-68
2022/09/03 06:13:30;;;;;;;22.70;10.60;;;;;;;;;;5038790;28;20052;-68
2022/09/03 06:16:00;;;;;;;21.30;11.02;;;;;;;;;;5039704;28;20025;-68
2022/09/03 06:18:27;;;;;;;25.80;11.65;;;;;;;;;;5038085;28;20037;-67
2022/09/03 06:21:01;;;;;;;19.77;10.40;;;;;;;;;;5040601;28;20045;-68
2022/09/03 06:23:28;;;;;;;24.58;10.88;;;;;;;;;;5036665;28;20047;-67
2022/09/03 06:26:02;;;;;;;24.08;11.35;;;;;;;;;;5054859;28;20055;-67
2022/09/03 06:28:28;;;;;;;37.67;11.23;;;;;;;;;;5031737;28;20041;-67
2022/09/03 06:30:58;;;;;;;23.48;11.30;;;;;;;;;;5021781;28;20041;-67
2022/09/03 06:33:24;;;;;;;29.98;11.63;;;;;;;;;;5027410;28;20678;-67
2022/09/03 06:35:58;;;;;;;25.58;11.65;;;;;;;;;;5041549;28;20255;-67
2022/09/03 06:38:25;;;;;;;22.08;11.40;;;;;;;;;;5041666;28;20037;-68
2022/09/03 06:40:55;;;;;;;28.67;11.02;;;;;;;;;;5035965;28;20068;-68
2022/09/03 06:43:23;;;;;;;24.50;10.80;;;;;;;;;;5040330;28;20041;-68
2022/09/03 06:45:56;;;;;;;24.30;10.85;;;;;;;;;;5038603;28;20078;-65
2022/09/03 06:48:23;;;;;;;30.90;11.68;;;;;;;;;;5030070;28;20072;-66
2022/09/03 06:51:02;;;;;;;22.88;10.95;;;;;;;;;;5020571;28;20040;-67
2022/09/03 06:53:30;;;;;;;29.38;12.15;;;;;;;;;;5022419;28;20083;-67
2022/09/03 06:55:58;;;;;;;31.60;11.75;;;;;;;;;;5039335;28;20047;-67
2022/09/03 06:58:25;;;;;;;21.55;10.60;;;;;;;;;;5038352;28;20060;-67
2022/09/03 07:00:52;;;;;;;17.98;9.90;;;;;;;;;;5028653;28;20041;-67
2022/09/03 07:03:19;;;;;;;15.25;9.60;;;;;;;;;;5029558;28;20436;-66
2022/09/03 07:05:46;;;;;;;19.55;10.05;;;;;;;;;;5039941;28;20505;-66
2022/09/03 07:08:13;;;;;;;23.50;10.20;;;;;;;;;;5040734;28;20129;-66
2022/09/03 07:10:39;;;;;;;20.60;9.90;;;;;;;;;;5041972;28;20060;-67
2022/09/03 07:13:06;;;;;;;21.77;10.02;;;;;;;;;;5040596;28;20045;-67
2022/09/03 07:15:33;;;;;;;21.20;10.45;;;;;;;;;;5036462;28;20025;-67
2022/09/03 07:18:00;;;;;;;19.95;8.98;;;;;;;;;;5040319;28;20056;-67
2022/09/03 07:20:26;;;;;;;18.48;8.88;;;;;;;;;;5042704;28;20033;-67
2022/09/03 07:22:56;;;;;;;16.65;8.70;;;;;;;;;;5044865;28;20395;-67
2022/09/03 07:25:25;;;;;;;22.48;9.45;;;;;;;;;;5042269;28;20069;-67
2022/09/03 07:27:51;;;;;;;15.82;8.63;;;;;;;;;;5037032;28;20101;-68
2022/09/03 07:30:21;;;;;;;20.05;9.60;;;;;;;;;;5025288;28;20474;-67
2022/09/03 07:32:49;;;;;;;18.48;8.40;;;;;;;;;;5023253;28;20208;-68
2022/09/03 07:35:18;;;;;;;19.45;9.15;;;;;;;;;;5039899;28;20098;-68
2022/09/03 07:37:45;;;;;;;18.15;8.40;;;;;;;;;;5042847;28;20132;-68
2022/09/03 07:40:12;;;;;;;23.08;9.05;;;;;;;;;;5042988;28;20596;-68
2022/09/03 07:42:39;;;;;;;15.75;8.10;;;;;;;;;;5041848;28;21272;-67
2022/09/03 07:45:09;;;;;;;18.17;8.52;;;;;;;;;;5042006;28;20059;-67
2022/09/03 07:47:36;;;;;;;14.43;7.60;;;;;;;;;;5040499;28;20041;-68
2022/09/03 07:50:04;;;;;;;18.08;7.43;;;;;;;;;;5040704;28;20033;-68
2022/09/03 07:52:31;;;;;;;15.68;7.15;;;;;;;;;;5042089;28;20071;-68
2022/09/03 07:54:58;;;;;;;12.57;6.28;;;;;;;;;;5041188;28;20117;-67
2022/09/03 07:57:25;;;;;;;13.43;5.97;;;;;;;;;;5042011;28;20417;-68
2022/09/03 07:59:51;;;;;;;13.75;6.35;;;;;;;;;;5042943;28;20044;-68
2022/09/03 08:02:18;;;;;;;23.90;6.20;;;;;;;;;;5021193;28;20060;-68
2022/09/03 08:04:44;;;;;;;14.18;5.72;;;;;;;;;;5024188;28;20049;-68
2022/09/03 08:07:11;;;;;;;13.70;6.15;;;;;;;;;;5040681;28;20521;-67
2022/09/03 08:09:38;;;;;;;14.68;5.75;;;;;;;;;;5044168;28;20075;-68
2022/09/03 08:12:05;;;;;;;9.98;5.13;;;;;;;;;;5043731;28;20041;-67
2022/09/03 08:14:31;;;;;;;15.48;5.50;;;;;;;;;;5043049;28;20041;-67
2022/09/03 08:16:58;;;;;;;11.68;5.82;;;;;;;;;;5043218;28;20064;-67
2022/09/03 08:19:25;;;;;;;12.15;6.28;;;;;;;;;;5044026;28;20041;-66
2022/09/03 08:21:52;;;;;;;12.63;5.95;;;;;;;;;;5041245;28;20134;-66
2022/09/03 08:24:20;;;;;;;14.50;5.55;;;;;;;;;;5033231;28;20057;-67
2022/09/03 08:26:47;;;;;;;17.02;6.18;;;;;;;;;;5042682;28;20120;-68
2022/09/03 08:29:13;;;;;;;16.30;5.40;;;;;;;;;;5040151;28;20041;-67
2022/09/03 08:31:40;;;;;;;14.10;5.70;;;;;;;;;;5041876;28;20045;-66
2022/09/03 08:34:07;;;;;;;14.57;6.20;;;;;;;;;;5044434;28;20037;-66
2022/09/03 08:36:35;;;;;;;16.17;5.80;;;;;;;;;;5042611;28;20595;-66
2022/09/03 08:39:03;;;;;;;12.48;6.32;;;;;;;;;;5041749;28;20116;-66
2022/09/03 08:41:49;;;;;;;11.05;5.57;;;;;;;;;;5042775;28;20068;-66
2022/09/03 08:44:34;;;;;;;10.95;4.72;;;;;;;;;;5043616;28;20505;-66
2022/09/03 08:47:00;;;;;;;12.88;5.35;;;;;;;;;;5039464;28;20052;-67
2022/09/03 08:49:48;;;;;;;10.60;6.18;;;;;;;;;;5024097;28;20041;-66
2022/09/03 08:52:33;;;;;;;10.35;5.43;;;;;;;;;;5024262;28;20135;-67
2022/09/03 08:55:16;;;;;;;10.25;5.85;;;;;;;;;;5025263;28;21652;-67
2022/09/03 08:57:57;;;;;;;12.20;5.50;;;;;;;;;;5031625;28;20045;-67
2022/09/03 09:00:23;;;;;;;11.73;5.53;;;;;;;;;;5041253;28;20525;-67
2022/09/03 09:02:57;;;;;;;15.30;5.47;;;;;;;;;;5023439;28;20044;-67
2022/09/03 09:05:29;;;;;;;9.32;5.47;;;;;;;;;;5022170;28;20056;-67
2022/09/03 09:08:06;;;;;;;10.45;5.15;;;;;;;;;;5039488;28;20035;-67
2022/09/03 09:10:59;;;;;;;9.57;5.10;;;;;;;;;;5038869;28;20036;-66
2022/09/03 09:13:28;;;;;;;13.73;5.18;;;;;;;;;;5007897;28;20124;-66
2022/09/03 09:16:06;;;;;;;12.35;5.55;;;;;;;;;;5041831;28;20075;-66
2022/09/03 09:18:45;;;;;;;9.85;5.20;;;;;;;;;;5040122;28;20037;-66
2022/09/03 09:21:14;;;;;;;12.05;5.53;;;;;;;;;;5037882;28;20164;-66
2022/09/03 09:23:44;;;;;;;14.52;5.45;;;;;;;;;;5041114;28;20041;-67
2022/09/03 09:26:13;;;;;;;10.82;5.25;;;;;;;;;;5044372;28;20123;-67
2022/09/03 09:28:40;;;;;;;11.32;5.65;;;;;;;;;;5045171;28;20068;-66
2022/09/03 09:31:08;;;;;;;15.68;5.38;;;;;;;;;;5046265;28;20051;-67
2022/09/03 09:33:34;;;;;;;12.43;5.28;;;;;;;;;;5044858;28;20028;-67
2022/09/03 09:36:05;;;;;;;11.38;5.70;;;;;;;;;;5046488;28;20041;-66
2022/09/03 09:38:34;;;;;;;9.25;4.93;;;;;;;;;;5044693;28;20031;-67
2022/09/03 09:41:11;;;;;;;10.45;5.55;;;;;;;;;;5037918;28;20288;-67
2022/09/03 09:43:38;;;;;;;11.40;5.47;;;;;;;;;;5037447;28;20049;-66
2022/09/03 09:46:16;;;;;;;8.45;4.88;;;;;;;;;;5041481;28;20044;-67
2022/09/03 09:48:56;;;;;;;13.57;5.70;;;;;;;;;;5041915;28;20041;-67
2022/09/03 09:51:23;;;;;;;11.55;5.18;;;;;;;;;;5051795;28;20041;-67
2022/09/03 09:54:01;;;;;;;10.50;5.22;;;;;;;;;;5032057;28;20041;-67
2022/09/03 09:56:27;;;;;;;10.38;5.55;;;;;;;;;;5022775;28;20038;-66
2022/09/03 09:59:07;;;;;;;9.40;5.07;;;;;;;;;;5033894;28;20051;-67
2022/09/03 10:01:36;;;;;;;11.57;5.30;;;;;;;;;;5024448;28;20037;-66
2022/09/03 10:04:11;;;;;;;11.02;5.40;;;;;;;;;;5035717;28;20429;-67
2022/09/03 10:06:53;;;;;;;10.50;4.93;;;;;;;;;;5031250;28;20059;-67
2022/09/03 10:09:22;;;;;;;7.95;4.75;;;;;;;;;;5038077;28;20041;-67
2022/09/03 10:11:51;;;;;;;12.70;5.70;;;;;;;;;;5030335;28;20375;-68
2022/09/03 10:14:33;;;;;;;12.98;5.60;;;;;;;;;;5029687;28;20041;-66
2022/09/03 10:17:04;;;;;;;10.02;5.35;;;;;;;;;;5023798;28;20037;-66
2022/09/03 10:20:25;;;;;;;9.60;5.15;;;;;;;;;;5036571;28;20604;-68
2022/09/03 10:22:30;;;;;;;13.20;5.80;;;;;;;;;;5038018;28;20045;-66
2022/09/03 10:24:59;;;;;;;10.32;5.13;;;;;;;;;;5038432;28;20187;-67
2022/09/03 10:27:25;;;;;;;12.10;5.32;;;;;;;;;;5037163;28;20083;-66
2022/09/03 10:29:52;;;;;;;13.85;5.85;;;;;;;;;;5040156;28;20040;-66
2022/09/03 10:32:32;;;;;;;13.00;5.30;;;;;;;;;;5039520;28;20041;-66
2022/09/03 10:35:02;;;;;;;13.10;5.38;;;;;;;;;;5038213;28;20056;-67
2022/09/03 10:37:37;;;;;;;11.63;5.22;;;;;;;;;;5038290;28;20029;-67
2022/09/03 10:40:14;;;;;;;14.30;5.30;;;;;;;;;;5038777;28;20120;-67
2022/09/03 10:42:44;;;;;;;10.35;5.22;;;;;;;;;;5049297;28;20503;-67
2022/09/03 10:45:23;;;;;;;10.25;5.40;;;;;;;;;;5026237;28;20049;-67
2022/09/03 10:48:03;;;;;;;10.25;5.47;;;;;;;;;;5027529;28;20064;-67
2022/09/03 10:50:52;;;;;;;15.50;5.90;;;;;;;;;;5031076;28;20048;-67
2022/09/03 10:53:19;;;;;;;10.38;5.50;;;;;;;;;;5034723;28;20481;-68
2022/09/03 10:55:52;;;;;;;9.65;5.10;;;;;;;;;;5031422;28;20034;-67
2022/09/03 10:58:25;;;;;;;10.35;5.38;;;;;;;;;;5037746;28;20094;-67
2022/09/03 11:00:53;;;;;;;10.60;5.18;;;;;;;;;;5039305;28;20471;-66
2022/09/03 11:03:26;;;;;;;10.82;5.45;;;;;;;;;;5021300;28;20037;-67
2022/09/03 11:06:06;;;;;;;13.63;5.70;;;;;;;;;;5032609;28;20061;-67
2022/09/03 11:08:37;;;;;;;9.50;5.13;;;;;;;;;;5038304;28;20037;-66
2022/09/03 11:11:18;;;;;;;9.77;5.80;;;;;;;;;;5006682;28;20037;-66
2022/09/03 11:14:07;;;;;;;11.60;5.80;;;;;;;;;;5022912;28;20045;-67
2022/09/03 11:16:43;;;;;;;12.00;5.03;;;;;;;;;;5028611;28;20139;-66
2022/09/03 11:19:14;;;;;;;12.55;5.40;;;;;;;;;;5034010;28;20041;-66
2022/09/03 11:21:41;;;;;;;12.70;5.80;;;;;;;;;;5023879;28;20634;-66
2022/09/03 11:24:17;;;;;;;12.27;5.30;;;;;;;;;;5054130;28;20034;-66
2022/09/03 11:26:45;;;;;;;10.48;5.53;;;;;;;;;;5053690;28;20500;-67
2022/09/03 11:29:20;;;;;;;12.45;5.88;;;;;;;;;;5034834;28;20516;-67
2022/09/03 11:31:56;;;;;;;13.52;5.45;;;;;;;;;;5033038;28;20044;-66
2022/09/03 11:34:45;;;;;;;15.90;5.85;;;;;;;;;;5040561;28;20056;-66
2022/09/03 11:37:20;;;;;;;13.32;5.68;;;;;;;;;;5041715;28;20138;-66
2022/09/03 11:40:03;;;;;;;13.32;5.85;;;;;;;;;;5032988;28;20459;-66
2022/09/03 11:42:29;;;;;;;13.70;5.45;;;;;;;;;;5039772;28;20056;-66
2022/09/03 11:45:00;;;;;;;19.35;6.03;;;;;;;;;;5037748;28;20508;-67
2022/09/03 11:47:40;;;;;;;13.27;5.70;;;;;;;;;;5030690;28;20072;-67
2022/09/03 11:50:09;;;;;;;16.38;5.95;;;;;;;;;;5021370;28;20045;-67
2022/09/03 11:52:39;;;;;;;13.63;6.32;;;;;;;;;;5034411;28;20037;-68
2022/09/03 11:55:06;;;;;;;11.73;6.10;;;;;;;;;;5037873;28;20998;-68
2022/09/03 11:57:40;;;;;;;11.43;5.90;;;;;;;;;;5029891;28;20037;-67
2022/09/03 12:00:11;;;;;;;15.18;6.30;;;;;;;;;;5038437;28;20074;-67
2022/09/03 12:02:44;;;;;;;13.98;6.72;;;;;;;;;;5039920;28;20041;-67
2022/09/03 12:05:20;;;;;;;12.13;6.20;;;;;;;;;;5039894;28;20045;-67
2022/09/03 12:07:53;;;;;;;12.85;6.00;;;;;;;;;;5028918;28;20064;-66
2022/09/03 12:10:19;;;;;;;;;;;;;;;;;;5031562;28;20037;-67
2022/09/03 12:12:58;;;;;;;18.92;6.70;;;;;;;;;;5033660;28;19924;-67
2022/09/03 12:16:04;;;;;;;12.80;6.18;;;;;;;;;;5034054;28;20042;-68
2022/09/03 12:18:31;;;;;;;18.95;7.22;;;;;;;;;;4965858;28;20436;-67
2022/09/03 12:20:59;;;;;;;12.27;6.53;;;;;;;;;;4968174;28;20109;-66
2022/09/03 12:23:35;;;;;;;12.00;6.40;;;;;;;;;;4994695;28;20148;-66
2022/09/03 12:26:06;;;;;;;13.73;6.28;;;;;;;;;;5019925;28;20073;-66
2022/09/03 12:28:35;;;;;;;17.77;6.72;;;;;;;;;;5020909;28;20041;-66
2022/09/03 12:31:20;;;;;;;11.90;6.25;;;;;;;;;;5023071;28;20046;-67
2022/09/03 12:33:57;;;;;;;15.75;6.90;;;;;;;;;;5033189;28;20075;-67
2022/09/03 12:36:24;;;;;;;15.10;7.20;;;;;;;;;;5038809;28;20036;-67
2022/09/03 12:38:51;;;;;;;18.63;7.32;;;;;;;;;;5044340;28;20029;-67
2022/09/03 12:41:22;;;;;;;16.33;6.97;;;;;;;;;;5043531;28;20045;-67
2022/09/03 12:43:53;;;;;;;13.90;7.28;;;;;;;;;;5031449;28;20170;-67
2022/09/03 12:46:23;;;;;;;14.43;7.43;;;;;;;;;;5027873;28;20095;-67
2022/09/03 12:48:53;;;;;;;15.40;7.90;;;;;;;;;;5023930;28;20049;-67
2022/09/03 12:51:20;;;;;;;13.93;8.15;;;;;;;;;;5025320;28;20041;-67
2022/09/03 12:53:47;;;;;;;14.23;8.30;;;;;;;;;;5028193;28;20040;-66
2022/09/03 12:56:14;;;;;;;22.67;9.57;;;;;;;;;;5040806;28;20124;-66
2022/09/03 12:58:49;;;;;;;18.52;8.55;;;;;;;;;;5040479;28;20120;-66
2022/09/03 13:01:25;;;;;;;15.82;8.88;;;;;;;;;;5022469;28;20040;-66
2022/09/03 13:03:56;;;;;;;16.08;9.80;;;;;;;;;;5033767;28;20519;-67
2022/09/03 13:06:31;;;;;;;22.45;9.85;;;;;;;;;;5041053;28;20049;-68
2022/09/03 13:09:03;;;;;;;17.08;9.20;;;;;;;;;;5041678;28;20406;-68
2022/09/03 13:11:36;;;;;;;23.52;10.50;;;;;;;;;;5039683;28;20040;-68
2022/09/03 13:14:08;;;;;;;24.52;11.00;;;;;;;;;;5041029;28;20156;-68
2022/09/03 13:16:38;;;;;;;23.00;10.38;;;;;;;;;;5038181;28;20139;-66
2022/09/03 13:19:04;;;;;;;24.70;10.13;;;;;;;;;;5024760;28;20038;-64
2022/09/03 13:21:31;;;;;;;27.25;10.20;;;;;;;;;;5025079;28;20037;-65
2022/09/03 13:24:07;;;;;;;21.42;10.75;;;;;;;;;;5036386;28;20520;-64
2022/09/03 13:26:58;;;;;;;23.52;10.25;;;;;;;;;;5021569;28;20091;-64
2022/09/03 13:29:38;;;;;;;22.05;10.85;;;;;;;;;;5039825;28;20697;-65
2022/09/03 13:32:29;;;;;;;26.85;10.63;;;;;;;;;;5042201;28;20048;-65
2022/09/03 13:35:01;;;;;;;28.63;10.68;;;;;;;;;;5041990;28;20443;-64
2022/09/03 13:37:28;;;;;;;19.17;10.25;;;;;;;;;;5041909;28;20086;-64
2022/09/03 13:39:58;;;;;;;24.85;10.65;;;;;;;;;;5042074;28;20064;-65
2022/09/03 13:42:28;;;;;;;27.73;11.40;;;;;;;;;;5042432;28;20041;-63
2022/09/03 13:45:05;;;;;;;23.67;11.15;;;;;;;;;;5040829;28;20045;-65
2022/09/03 13:47:36;;;;;;;22.58;11.20;;;;;;;;;;5043209;28;20052;-64
2022/09/03 13:50:21;;;;;;;21.02;11.93;;;;;;;;;;5038292;28;20049;-64
2022/09/03 13:52:58;;;;;;;23.45;12.52;;;;;;;;;;5027781;28;20068;-66
2022/09/03 13:55:28;;;;;;;26.50;13.02;;;;;;;;;;5035279;28;20132;-66
2022/09/03 13:57:58;;;;;;;28.08;13.45;;;;;;;;;;5037868;28;20609;-65
2022/09/03 14:00:46;;;;;;;28.05;12.77;;;;;;;;;;5017230;28;20385;-65
2022/09/03 14:03:15;;;;;;;29.55;13.90;;;;;;;;;;5019910;28;20628;-65
2022/09/03 14:05:42;;;;;;;26.55;14.02;;;;;;;;;;5036621;28;20134;-66
2022/09/03 14:08:13;;;;;;;24.67;14.40;;;;;;;;;;5030820;28;20044;-65
2022/09/03 14:11:03;;;;;;;23.42;13.73;;;;;;;;;;5036592;28;20037;-66
2022/09/03 14:13:29;;;;;;;25.80;13.90;;;;;;;;;;5035537;28;20037;-66
2022/09/03 14:16:31;;;;;;;26.00;14.88;;;;;;;;;;5038111;28;20126;-65
2022/09/03 14:19:00;;;;;;;27.60;14.10;;;;;;;;;;4967779;28;20049;-66
2022/09/03 14:21:43;;;;;;;28.67;14.45;;;;;;;;;;5018208;28;20831;-65
2022/09/03 14:24:09;;;;;;;26.63;13.65;;;;;;;;;;5023913;28;20038;-65
2022/09/03 14:26:37;;;;;;;24.90;13.93;;;;;;;;;;5032051;28;20049;-66
2022/09/03 14:29:10;;;;;;;28.95;14.10;;;;;;;;;;5041286;28;20041;-65
2022/09/03 14:32:00;;;;;;;27.98;14.23;;;;;;;;;;5041457;28;20033;-65
2022/09/03 14:34:27;;;;;;;28.38;13.70;;;;;;;;;;5038385;28;21494;-65
2022/09/03 14:37:14;;;;;;;31.58;14.48;;;;;;;;;;5037678;28;20132;-66
2022/09/03 14:39:47;;;;;;;30.90;14.77;;;;;;;;;;5040490;28;20116;-66
2022/09/03 14:42:29;;;;;;;24.92;14.93;;;;;;;;;;5041658;28;20486;-66
2022/09/03 14:45:14;;;;;;;48.35;26.05;;;;;;;;;;5019978;28;20060;-65
2022/09/03 14:47:41;;;;;;;31.58;16.70;;;;;;;;;;5033195;28;20075;-66
2022/09/03 14:50:14;;;;;;;33.05;16.95;;;;;;;;;;5041006;28;20405;-65
2022/09/03 14:52:56;;;;;;;29.75;16.65;;;;;;;;;;5039996;28;20125;-65
2022/09/03 14:55:29;;;;;;;33.50;18.85;;;;;;;;;;5039993;28;20545;-64